createdAt,value
2023-02-28T00:00:06.566Z,1027.12
2023-02-28T00:01:06.557Z,1027.16
2023-02-28T00:02:06.621Z,1027.14
2023-02-28T00:03:06.641Z,1027.17
2023-02-28T00:04:06.546Z,1027.19
2023-02-28T00:05:06.537Z,1027.16
2023-02-28T00:06:06.540Z,1027.16
2023-02-28T00:07:06.528Z,1027.12
2023-02-28T00:08:06.534Z,1027.16
2023-02-28T00:09:06.514Z,1027.15
2023-02-28T00:10:06.518Z,1027.12
2023-02-28T00:11:06.527Z,1027.14
2023-02-28T00:12:06.508Z,1027.14
2023-02-28T00:13:06.496Z,1027.17
2023-02-28T00:14:06.499Z,1027.21
2023-02-28T00:15:06.491Z,1027.18
2023-02-28T00:16:06.485Z,1027.22
2023-02-28T00:17:06.482Z,1027.25
2023-02-28T00:18:06.482Z,1027.22
2023-02-28T00:19:06.480Z,1027.21
2023-02-28T00:20:06.467Z,1027.22
2023-02-28T00:21:06.457Z,1027.23
2023-02-28T00:22:06.457Z,1027.21
2023-02-28T00:23:06.447Z,1027.23
2023-02-28T00:24:06.445Z,1027.18
2023-02-28T00:25:06.435Z,1027.18
2023-02-28T00:26:06.446Z,1027.20
2023-02-28T00:27:06.447Z,1027.15
2023-02-28T00:28:06.426Z,1027.15
2023-02-28T00:29:06.415Z,1027.16
2023-02-28T00:30:06.414Z,1027.17
2023-02-28T00:31:06.612Z,1027.14
2023-02-28T00:32:06.439Z,1027.16
2023-02-28T00:33:06.398Z,1027.18
2023-02-28T00:34:06.390Z,1027.17
2023-02-28T00:35:06.383Z,1027.20
2023-02-28T00:36:06.391Z,1027.19
2023-02-28T00:37:06.374Z,1027.18
2023-02-28T00:38:06.366Z,1027.17
2023-02-28T00:39:06.361Z,1027.19
2023-02-28T00:40:06.359Z,1027.16
2023-02-28T00:41:06.367Z,1027.19
2023-02-28T00:42:06.352Z,1027.14
2023-02-28T00:43:06.376Z,1027.16
2023-02-28T00:44:06.342Z,1027.20
2023-02-28T00:45:06.332Z,1027.19
2023-02-28T00:46:06.435Z,1027.22
2023-02-28T00:47:06.326Z,1027.21
2023-02-28T00:48:06.319Z,1027.19
2023-02-28T00:49:06.310Z,1027.20
2023-02-28T00:50:06.308Z,1027.20
2023-02-28T00:51:06.309Z,1027.18
2023-02-28T00:52:06.318Z,1027.19
2023-02-28T00:53:06.293Z,1027.24
2023-02-28T00:54:06.284Z,1027.23
2023-02-28T00:55:06.292Z,1027.17
2023-02-28T00:56:06.277Z,1027.18
2023-02-28T00:57:06.266Z,1027.20
2023-02-28T00:58:06.271Z,1027.20
2023-02-28T00:59:06.274Z,1027.19
2023-02-28T01:00:06.258Z,1027.19
2023-02-28T01:01:06.370Z,1027.18
2023-02-28T01:02:06.244Z,1027.19
2023-02-28T01:03:06.237Z,1027.24
2023-02-28T01:04:06.294Z,1027.21
2023-02-28T01:05:06.228Z,1027.19
2023-02-28T01:06:06.219Z,1027.20
2023-02-28T01:07:06.216Z,1027.21
2023-02-28T01:08:06.228Z,1027.16
2023-02-28T01:09:06.213Z,1027.14
2023-02-28T01:10:06.204Z,1027.14
2023-02-28T01:11:06.196Z,1027.10
2023-02-28T01:12:06.209Z,1027.14
2023-02-28T01:13:06.193Z,1027.21
2023-02-28T01:14:06.183Z,1027.16
2023-02-28T01:15:06.209Z,1027.15
2023-02-28T01:16:06.227Z,1027.15
2023-02-28T01:17:06.166Z,1027.12
2023-02-28T01:18:06.163Z,1027.17
2023-02-28T01:19:06.152Z,1027.15
2023-02-28T01:20:06.154Z,1027.14
2023-02-28T01:21:06.145Z,1027.09
2023-02-28T01:22:06.141Z,1027.10
2023-02-28T01:23:06.127Z,1027.11
2023-02-28T01:24:06.146Z,1027.07
2023-02-28T01:25:06.237Z,1027.10
2023-02-28T01:26:06.119Z,1027.13
2023-02-28T01:27:06.125Z,1027.13
2023-02-28T01:28:06.116Z,1027.07
2023-02-28T01:29:06.102Z,1027.06
2023-02-28T01:30:06.097Z,1027.09
2023-02-28T01:31:06.182Z,1027.07
2023-02-28T01:32:06.128Z,1027.03
2023-02-28T01:33:06.083Z,1027.04
2023-02-28T01:34:06.079Z,1027.04
2023-02-28T01:35:06.072Z,1027.03
2023-02-28T01:36:06.146Z,1027.03
2023-02-28T01:37:06.057Z,1027.00
2023-02-28T01:38:20.842Z,1027.00
2023-02-28T01:39:06.056Z,1026.98
2023-02-28T01:40:06.070Z,1026.97
2023-02-28T01:41:06.037Z,1027.04
2023-02-28T01:42:06.033Z,1027.06
2023-02-28T01:43:06.023Z,1027.06
2023-02-28T01:44:06.020Z,1027.05
2023-02-28T01:45:06.012Z,1027.02
2023-02-28T01:46:06.066Z,1027.00
2023-02-28T01:47:06.017Z,1027.01
2023-02-28T01:48:06.016Z,1026.97
2023-02-28T01:49:05.989Z,1027.02
2023-02-28T01:50:05.987Z,1027.02
2023-02-28T01:51:05.983Z,1027.00
2023-02-28T01:52:05.978Z,1027.06
2023-02-28T01:53:05.965Z,1027.04
2023-02-28T01:54:05.959Z,1027.04
2023-02-28T01:55:05.955Z,1027.05
2023-02-28T01:56:05.953Z,1027.05
2023-02-28T01:57:05.946Z,1027.01
2023-02-28T01:58:05.960Z,1027.00
2023-02-28T01:59:05.945Z,1027.00
2023-02-28T02:00:05.927Z,1026.99
2023-02-28T02:01:05.923Z,1026.98
2023-02-28T02:02:06.011Z,1026.99
2023-02-28T02:03:05.987Z,1027.00
2023-02-28T02:04:05.906Z,1026.98
2023-02-28T02:05:05.900Z,1026.99
2023-02-28T02:06:05.894Z,1026.97
2023-02-28T02:07:05.889Z,1026.94
2023-02-28T02:08:05.884Z,1026.99
2023-02-28T02:09:05.879Z,1027.00
2023-02-28T02:10:05.878Z,1026.97
2023-02-28T02:11:05.865Z,1026.98
2023-02-28T02:12:05.861Z,1026.97
2023-02-28T02:13:05.854Z,1026.95
2023-02-28T02:14:05.851Z,1026.95
2023-02-28T02:15:05.842Z,1026.96
2023-02-28T02:16:05.890Z,1026.95
2023-02-28T02:17:05.830Z,1026.97
2023-02-28T02:18:05.831Z,1026.95
2023-02-28T02:19:05.847Z,1026.97
2023-02-28T02:20:05.817Z,1027.00
2023-02-28T02:21:05.809Z,1027.00
2023-02-28T02:22:05.807Z,1027.01
2023-02-28T02:23:05.802Z,1026.94
2023-02-28T02:24:05.794Z,1026.99
2023-02-28T02:25:05.807Z,1026.96
2023-02-28T02:26:05.779Z,1026.94
2023-02-28T02:27:05.777Z,1026.91
2023-02-28T02:28:05.787Z,1026.90
2023-02-28T02:29:05.775Z,1026.92
2023-02-28T02:30:05.775Z,1026.92
2023-02-28T02:31:05.795Z,1026.90
2023-02-28T02:32:05.807Z,1026.90
2023-02-28T02:33:05.741Z,1026.90
2023-02-28T02:34:05.739Z,1026.92
2023-02-28T02:35:05.753Z,1026.91
2023-02-28T02:36:05.723Z,1026.95
2023-02-28T02:37:05.713Z,1026.96
2023-02-28T02:38:05.737Z,1026.94
2023-02-28T02:39:05.711Z,1026.97
2023-02-28T02:40:05.694Z,1026.96
2023-02-28T02:41:05.699Z,1026.98
2023-02-28T02:42:05.691Z,1026.98
2023-02-28T02:43:05.684Z,1026.99
2023-02-28T02:44:05.675Z,1026.93
2023-02-28T02:45:05.681Z,1026.94
2023-02-28T02:46:05.664Z,1026.91
2023-02-28T02:47:05.663Z,1026.94
2023-02-28T02:48:05.650Z,1026.94
2023-02-28T02:49:05.650Z,1026.95
2023-02-28T02:50:05.667Z,1026.99
2023-02-28T02:51:05.665Z,1027.00
2023-02-28T02:52:05.628Z,1026.96
2023-02-28T02:53:05.634Z,1026.96
2023-02-28T02:54:05.616Z,1026.96
2023-02-28T02:55:05.623Z,1026.93
2023-02-28T02:56:05.607Z,1026.98
2023-02-28T02:57:05.602Z,1026.97
2023-02-28T02:58:05.591Z,1026.99
2023-02-28T02:59:05.595Z,1026.92
2023-02-28T03:00:05.590Z,1026.95
2023-02-28T03:01:05.668Z,1026.97
2023-02-28T03:02:05.572Z,1026.93
2023-02-28T03:03:05.565Z,1026.98
2023-02-28T03:04:05.641Z,1026.98
2023-02-28T03:05:05.559Z,1026.95
2023-02-28T03:06:05.544Z,1027.01
2023-02-28T03:07:05.562Z,1027.00
2023-02-28T03:08:05.536Z,1026.98
2023-02-28T03:09:05.542Z,1026.95
2023-02-28T03:10:05.523Z,1026.97
2023-02-28T03:11:05.517Z,1027.02
2023-02-28T03:12:05.513Z,1026.98
2023-02-28T03:13:05.511Z,1027.00
2023-02-28T03:14:05.493Z,1027.03
2023-02-28T03:15:05.496Z,1027.01
2023-02-28T03:16:05.497Z,1027.02
2023-02-28T03:17:05.482Z,1027.01
2023-02-28T03:18:05.476Z,1027.04
2023-02-28T03:19:05.473Z,1026.97
2023-02-28T03:20:07.750Z,1027.00
2023-02-28T03:21:05.461Z,1027.02
2023-02-28T03:22:05.453Z,1027.02
2023-02-28T03:23:05.469Z,1027.04
2023-02-28T03:24:05.455Z,1027.07
2023-02-28T03:25:05.436Z,1027.04
2023-02-28T03:26:05.427Z,1027.04
2023-02-28T03:27:05.421Z,1027.08
2023-02-28T03:28:05.449Z,1027.03
2023-02-28T03:29:05.412Z,1027.05
2023-02-28T03:30:05.408Z,1027.03
2023-02-28T03:31:05.403Z,1027.06
2023-02-28T03:32:05.470Z,1027.06
2023-02-28T03:33:05.385Z,1027.07
2023-02-28T03:34:05.380Z,1027.07
2023-02-28T03:35:05.380Z,1027.06
2023-02-28T03:36:05.364Z,1027.03
2023-02-28T03:37:05.426Z,1027.07
2023-02-28T03:38:05.378Z,1027.03
2023-02-28T03:39:05.366Z,1027.03
2023-02-28T03:40:05.341Z,1027.04
2023-02-28T03:41:05.340Z,1027.06
2023-02-28T03:42:05.334Z,1027.07
2023-02-28T03:43:05.325Z,1027.08
2023-02-28T03:44:05.324Z,1027.14
2023-02-28T03:45:05.314Z,1027.13
2023-02-28T03:46:05.354Z,1027.13
2023-02-28T03:47:05.301Z,1027.14
2023-02-28T03:48:05.301Z,1027.15
2023-02-28T03:49:05.292Z,1027.18
2023-02-28T03:50:05.274Z,1027.14
2023-02-28T03:51:05.289Z,1027.14
2023-02-28T03:52:05.273Z,1027.16
2023-02-28T03:53:05.261Z,1027.14
2023-02-28T03:54:05.251Z,1027.15
2023-02-28T03:55:05.279Z,1027.09
2023-02-28T03:56:05.240Z,1027.14
2023-02-28T03:57:05.237Z,1027.10
2023-02-28T03:58:05.225Z,1027.12
2023-02-28T03:59:05.222Z,1027.12
2023-02-28T04:00:05.209Z,1027.10
2023-02-28T04:01:05.203Z,1027.11
2023-02-28T04:02:05.244Z,1027.07
2023-02-28T04:03:05.196Z,1027.11
2023-02-28T04:04:05.239Z,1027.10
2023-02-28T04:05:05.183Z,1027.17
2023-02-28T04:06:05.176Z,1027.18
2023-02-28T04:07:05.190Z,1027.18
2023-02-28T04:08:05.175Z,1027.19
2023-02-28T04:09:05.162Z,1027.18
2023-02-28T04:10:05.151Z,1027.18
2023-02-28T04:11:05.170Z,1027.18
2023-02-28T04:12:05.140Z,1027.24
2023-02-28T04:13:05.130Z,1027.21
2023-02-28T04:14:05.123Z,1027.18
2023-02-28T04:15:05.124Z,1027.20
2023-02-28T04:16:05.161Z,1027.21
2023-02-28T04:17:05.114Z,1027.22
2023-02-28T04:18:05.100Z,1027.26
2023-02-28T04:19:05.104Z,1027.22
2023-02-28T04:20:05.079Z,1027.18
2023-02-28T04:21:05.076Z,1027.23
2023-02-28T04:22:05.091Z,1027.19
2023-02-28T04:23:05.064Z,1027.17
2023-02-28T04:24:05.059Z,1027.20
2023-02-28T04:25:05.075Z,1027.20
2023-02-28T04:26:05.048Z,1027.20
2023-02-28T04:27:05.063Z,1027.17
2023-02-28T04:28:05.031Z,1027.19
2023-02-28T04:29:05.029Z,1027.18
2023-02-28T04:30:05.018Z,1027.20
2023-02-28T04:31:05.020Z,1027.20
2023-02-28T04:32:05.182Z,1027.20
2023-02-28T04:33:05.001Z,1027.18
2023-02-28T04:34:04.989Z,1027.23
2023-02-28T04:35:04.987Z,1027.18
2023-02-28T04:36:05.011Z,1027.21
2023-02-28T04:37:13.951Z,1027.19
2023-02-28T04:38:04.965Z,1027.24
2023-02-28T04:39:04.966Z,1027.23
2023-02-28T04:40:04.946Z,1027.21
2023-02-28T04:41:04.944Z,1027.24
2023-02-28T04:42:04.944Z,1027.22
2023-02-28T04:43:05.001Z,1027.23
2023-02-28T04:44:04.954Z,1027.25
2023-02-28T04:45:04.935Z,1027.22
2023-02-28T04:46:05.029Z,1027.24
2023-02-28T04:47:04.915Z,1027.26
2023-02-28T04:48:04.891Z,1027.25
2023-02-28T04:49:04.887Z,1027.27
2023-02-28T04:50:04.887Z,1027.26
2023-02-28T04:51:04.875Z,1027.22
2023-02-28T04:52:04.956Z,1027.27
2023-02-28T04:53:04.861Z,1027.28
2023-02-28T04:54:04.853Z,1027.27
2023-02-28T04:55:04.856Z,1027.27
2023-02-28T04:56:04.841Z,1027.30
2023-02-28T04:57:04.836Z,1027.28
2023-02-28T04:58:04.824Z,1027.28
2023-02-28T04:59:04.848Z,1027.33
2023-02-28T05:00:04.807Z,1027.35
2023-02-28T05:01:04.817Z,1027.33
2023-02-28T05:02:04.876Z,1027.38
2023-02-28T05:03:04.795Z,1027.37
2023-02-28T05:04:04.784Z,1027.37
2023-02-28T05:05:04.869Z,1027.41
2023-02-28T05:06:04.771Z,1027.44
2023-02-28T05:07:04.768Z,1027.39
2023-02-28T05:08:04.770Z,1027.41
2023-02-28T05:09:04.764Z,1027.41
2023-02-28T05:10:06.480Z,1027.42
2023-02-28T05:11:04.738Z,1027.43
2023-02-28T05:12:04.733Z,1027.43
2023-02-28T05:13:04.724Z,1027.44
2023-02-28T05:14:04.711Z,1027.45
2023-02-28T05:15:04.730Z,1027.47
2023-02-28T05:16:04.735Z,1027.41
2023-02-28T05:17:04.692Z,1027.41
2023-02-28T05:18:04.683Z,1027.44
2023-02-28T05:19:04.936Z,1027.44
2023-02-28T05:20:15.043Z,1027.43
2023-02-28T05:21:04.673Z,1027.42
2023-02-28T05:22:04.653Z,1027.47
2023-02-28T05:23:04.652Z,1027.47
2023-02-28T05:24:04.669Z,1027.48
2023-02-28T05:25:04.655Z,1027.45
2023-02-28T05:26:04.630Z,1027.49
2023-02-28T05:27:04.629Z,1027.47
2023-02-28T05:28:04.611Z,1027.50
2023-02-28T05:29:04.614Z,1027.48
2023-02-28T05:30:04.600Z,1027.45
2023-02-28T05:31:04.621Z,1027.46
2023-02-28T05:32:04.750Z,1027.47
2023-02-28T05:33:04.578Z,1027.48
2023-02-28T05:34:04.580Z,1027.47
2023-02-28T05:35:04.564Z,1027.47
2023-02-28T05:36:04.630Z,1027.49
2023-02-28T05:37:04.550Z,1027.55
2023-02-28T05:38:04.554Z,1027.52
2023-02-28T05:39:04.537Z,1027.52
2023-02-28T05:40:04.528Z,1027.58
2023-02-28T05:41:04.524Z,1027.54
2023-02-28T05:42:04.511Z,1027.54
2023-02-28T05:43:04.508Z,1027.52
2023-02-28T05:44:04.498Z,1027.52
2023-02-28T05:45:04.497Z,1027.56
2023-02-28T05:46:04.517Z,1027.59
2023-02-28T05:47:04.512Z,1027.54
2023-02-28T05:48:04.486Z,1027.56
2023-02-28T05:49:04.500Z,1027.53
2023-02-28T05:50:04.462Z,1027.52
2023-02-28T05:51:04.459Z,1027.51
2023-02-28T05:52:04.442Z,1027.55
2023-02-28T05:53:04.442Z,1027.57
2023-02-28T05:54:04.442Z,1027.57
2023-02-28T05:55:04.426Z,1027.59
2023-02-28T05:56:04.423Z,1027.58
2023-02-28T05:57:10.064Z,1027.58
2023-02-28T05:58:04.401Z,1027.62
2023-02-28T05:59:04.415Z,1027.60
2023-02-28T06:00:04.395Z,1027.60
2023-02-28T06:01:04.388Z,1027.60
2023-02-28T06:02:04.437Z,1027.68
2023-02-28T06:03:04.477Z,1027.60
2023-02-28T06:04:04.366Z,1027.61
2023-02-28T06:05:04.354Z,1027.61
2023-02-28T06:06:04.367Z,1027.65
2023-02-28T06:07:04.361Z,1027.64
2023-02-28T06:08:04.342Z,1027.67
2023-02-28T06:09:04.334Z,1027.62
2023-02-28T06:10:04.317Z,1027.62
2023-02-28T06:11:04.315Z,1027.63
2023-02-28T06:12:04.309Z,1027.65
2023-02-28T06:13:04.307Z,1027.68
2023-02-28T06:14:04.292Z,1027.69
2023-02-28T06:15:04.292Z,1027.67
2023-02-28T06:16:04.280Z,1027.66
2023-02-28T06:17:04.368Z,1027.69
2023-02-28T06:18:04.271Z,1027.70
2023-02-28T06:19:04.294Z,1027.74
2023-02-28T06:20:04.252Z,1027.74
2023-02-28T06:21:04.245Z,1027.77
2023-02-28T06:22:04.232Z,1027.73
2023-02-28T06:23:04.266Z,1027.73
2023-02-28T06:24:04.226Z,1027.77
2023-02-28T06:25:04.215Z,1027.75
2023-02-28T06:26:04.211Z,1027.79
2023-02-28T06:27:04.207Z,1027.78
2023-02-28T06:28:04.205Z,1027.80
2023-02-28T06:29:04.193Z,1027.81
2023-02-28T06:30:04.187Z,1027.82
2023-02-28T06:31:04.222Z,1027.82
2023-02-28T06:32:04.205Z,1027.86
2023-02-28T06:33:04.201Z,1027.85
2023-02-28T06:34:04.152Z,1027.86
2023-02-28T06:35:04.167Z,1027.86
2023-02-28T06:36:04.196Z,1027.86
2023-02-28T06:37:04.127Z,1027.88
2023-02-28T06:38:04.126Z,1027.87
2023-02-28T06:39:04.126Z,1027.87
2023-02-28T06:40:04.119Z,1027.90
2023-02-28T06:41:04.109Z,1027.95
2023-02-28T06:42:04.107Z,1027.93
2023-02-28T06:43:04.112Z,1027.99
2023-02-28T06:44:04.080Z,1028.02
2023-02-28T06:45:04.080Z,1028.00
2023-02-28T06:46:04.117Z,1028.06
2023-02-28T06:47:04.064Z,1028.06
2023-02-28T06:48:04.096Z,1028.09
2023-02-28T06:49:04.069Z,1028.05
2023-02-28T06:50:04.041Z,1028.02
2023-02-28T06:51:04.068Z,1028.03
2023-02-28T06:52:04.033Z,1028.06
2023-02-28T06:53:04.022Z,1028.07
2023-02-28T06:54:04.056Z,1028.08
2023-02-28T06:55:04.008Z,1028.08
2023-02-28T06:56:04.041Z,1028.08
2023-02-28T06:57:04.008Z,1028.03
2023-02-28T06:58:04.013Z,1028.08
2023-02-28T06:59:04.004Z,1028.12
2023-02-28T07:00:04.010Z,1028.10
2023-02-28T07:01:04.005Z,1028.11
2023-02-28T07:02:03.961Z,1028.11
2023-02-28T07:03:03.944Z,1028.13
2023-02-28T07:04:03.957Z,1028.12
2023-02-28T07:05:03.947Z,1028.17
2023-02-28T07:06:03.928Z,1028.14
2023-02-28T07:07:03.942Z,1028.16
2023-02-28T07:08:03.925Z,1028.16
2023-02-28T07:09:04.140Z,1028.20
2023-02-28T07:10:03.902Z,1028.21
2023-02-28T07:11:03.891Z,1028.16
2023-02-28T07:12:03.889Z,1028.18
2023-02-28T07:13:03.873Z,1028.19
2023-02-28T07:14:03.877Z,1028.14
2023-02-28T07:15:03.862Z,1028.18
2023-02-28T07:16:03.957Z,1028.16
2023-02-28T07:17:03.845Z,1028.15
2023-02-28T07:18:03.845Z,1028.15
2023-02-28T07:19:03.840Z,1028.18
2023-02-28T07:20:03.839Z,1028.20
2023-02-28T07:21:03.842Z,1028.15
2023-02-28T07:22:03.854Z,1028.18
2023-02-28T07:23:03.839Z,1028.17
2023-02-28T07:24:03.823Z,1028.14
2023-02-28T07:25:03.802Z,1028.10
2023-02-28T07:26:03.790Z,1028.12
2023-02-28T07:27:03.784Z,1028.16
2023-02-28T07:28:03.790Z,1028.19
2023-02-28T07:29:03.786Z,1028.13
2023-02-28T07:30:03.812Z,1028.21
2023-02-28T07:31:03.808Z,1028.18
2023-02-28T07:32:03.842Z,1028.23
2023-02-28T07:33:03.744Z,1028.23
2023-02-28T07:34:03.744Z,1028.26
2023-02-28T07:35:03.733Z,1028.28
2023-02-28T07:36:03.754Z,1028.24
2023-02-28T07:37:03.726Z,1028.27
2023-02-28T07:38:03.725Z,1028.26
2023-02-28T07:39:03.738Z,1028.29
2023-02-28T07:40:03.710Z,1028.28
2023-02-28T07:41:03.704Z,1028.31
2023-02-28T07:42:03.700Z,1028.30
2023-02-28T07:43:03.694Z,1028.33
2023-02-28T07:44:03.688Z,1028.33
2023-02-28T07:45:03.720Z,1028.33
2023-02-28T07:46:03.671Z,1028.33
2023-02-28T07:47:03.737Z,1028.38
2023-02-28T07:48:03.674Z,1028.33
2023-02-28T07:49:03.656Z,1028.38
2023-02-28T07:50:03.654Z,1028.39
2023-02-28T07:51:03.651Z,1028.38
2023-02-28T07:52:03.649Z,1028.41
2023-02-28T07:53:03.648Z,1028.44
2023-02-28T07:54:03.682Z,1028.41
2023-02-28T07:55:03.647Z,1028.49
2023-02-28T07:56:03.619Z,1028.40
2023-02-28T07:57:03.620Z,1028.37
2023-02-28T07:58:03.617Z,1028.42
2023-02-28T07:59:03.612Z,1028.42
2023-02-28T08:00:03.601Z,1028.43
2023-02-28T08:01:03.591Z,1028.39
2023-02-28T08:02:03.617Z,1028.44
2023-02-28T08:03:03.588Z,1028.41
2023-02-28T08:04:03.591Z,1028.41
2023-02-28T08:05:03.666Z,1028.49
2023-02-28T08:06:03.587Z,1028.45
2023-02-28T08:07:03.561Z,1028.45
2023-02-28T08:08:03.585Z,1028.46
2023-02-28T08:09:03.570Z,1028.53
2023-02-28T08:10:03.562Z,1028.49
2023-02-28T08:11:03.569Z,1028.52
2023-02-28T08:12:03.542Z,1028.50
2023-02-28T08:13:03.551Z,1028.56
2023-02-28T08:14:03.527Z,1028.52
2023-02-28T08:15:03.554Z,1028.53
2023-02-28T08:16:03.630Z,1028.53
2023-02-28T08:17:03.535Z,1028.57
2023-02-28T08:18:03.510Z,1028.58
2023-02-28T08:19:03.515Z,1028.50
2023-02-28T08:20:03.505Z,1028.50
2023-02-28T08:21:03.493Z,1028.59
2023-02-28T08:22:03.491Z,1028.67
2023-02-28T08:23:03.506Z,1028.62
2023-02-28T08:24:03.480Z,1028.70
2023-02-28T08:25:03.483Z,1028.60
2023-02-28T08:26:03.475Z,1028.58
2023-02-28T08:27:03.498Z,1028.65
2023-02-28T08:28:03.472Z,1028.76
2023-02-28T08:29:03.458Z,1028.88
2023-02-28T08:30:03.472Z,1028.95
2023-02-28T08:31:03.460Z,1028.87
2023-02-28T08:32:03.616Z,1028.97
2023-02-28T08:33:03.541Z,1028.95
2023-02-28T08:34:03.454Z,1028.95
2023-02-28T08:35:03.460Z,1028.97
2023-02-28T08:36:03.611Z,1028.89
2023-02-28T08:37:03.434Z,1028.98
2023-02-28T08:38:03.432Z,1029.13
2023-02-28T08:39:03.429Z,1029.29
2023-02-28T08:40:03.427Z,1029.28
2023-02-28T08:41:03.418Z,1029.12
2023-02-28T08:42:07.475Z,1029.06
2023-02-28T08:43:03.445Z,1029.22
2023-02-28T08:44:03.419Z,1029.30
2023-02-28T08:45:03.427Z,1029.42
2023-02-28T08:46:03.445Z,1029.43
2023-02-28T08:47:03.408Z,1029.46
2023-02-28T08:48:03.414Z,1029.40
2023-02-28T08:49:03.406Z,1029.41
2023-02-28T08:50:03.419Z,1029.46
2023-02-28T08:51:08.281Z,1029.45
2023-02-28T08:52:03.424Z,1029.48
2023-02-28T08:53:03.398Z,1029.51
2023-02-28T08:54:03.413Z,1029.54
2023-02-28T08:55:03.397Z,1029.51
2023-02-28T08:56:03.398Z,1029.55
2023-02-28T08:57:03.397Z,1029.51
2023-02-28T08:58:03.394Z,1029.50
2023-02-28T08:59:03.434Z,1029.50
2023-02-28T09:00:03.404Z,1029.60
2023-02-28T09:01:03.447Z,1029.62
2023-02-28T09:02:03.395Z,1029.68
2023-02-28T09:03:03.400Z,1029.68
2023-02-28T09:04:03.409Z,1029.76
2023-02-28T09:05:03.395Z,1029.84
2023-02-28T09:06:03.398Z,1029.85
2023-02-28T09:07:03.407Z,1029.88
2023-02-28T09:08:03.398Z,1029.97
2023-02-28T09:09:03.392Z,1030.00
2023-02-28T09:10:03.410Z,1029.98
2023-02-28T09:11:03.567Z,1030.00
2023-02-28T09:12:03.400Z,1029.97
2023-02-28T09:13:03.396Z,1030.00
2023-02-28T09:14:03.398Z,1029.96
2023-02-28T09:15:03.425Z,1029.88
2023-02-28T09:16:03.397Z,1029.79
2023-02-28T09:18:03.400Z,1028.94
2023-02-28T09:19:03.399Z,1028.90
2023-02-28T09:20:03.405Z,1028.88
2023-02-28T09:21:03.396Z,1028.90
2023-02-28T09:22:03.402Z,1028.91
2023-02-28T09:23:03.406Z,1028.87
2023-02-28T09:24:03.428Z,1028.84
2023-02-28T09:25:03.404Z,1028.81
2023-02-28T09:26:03.418Z,1028.82
2023-02-28T09:27:05.207Z,1028.80
2023-02-28T09:28:03.408Z,1028.79
2023-02-28T09:29:03.402Z,1028.74
2023-02-28T09:30:03.408Z,1028.72
2023-02-28T09:31:03.563Z,1028.72
2023-02-28T09:32:03.518Z,1028.75
2023-02-28T09:33:03.404Z,1028.72
2023-02-28T09:34:03.478Z,1028.72
2023-02-28T09:35:03.423Z,1028.72
2023-02-28T09:36:03.503Z,1028.77
2023-02-28T09:37:03.498Z,1028.72
2023-02-28T09:38:03.416Z,1028.66
2023-02-28T09:39:03.408Z,1028.66
2023-02-28T09:40:03.422Z,1028.68
2023-02-28T09:41:03.416Z,1028.67
2023-02-28T09:42:03.418Z,1028.70
2023-02-28T09:43:03.422Z,1028.72
2023-02-28T09:44:03.409Z,1028.69
2023-02-28T09:45:03.421Z,1028.71
2023-02-28T09:46:03.554Z,1028.72
2023-02-28T09:47:03.438Z,1028.70
2023-02-28T09:48:03.417Z,1028.66
2023-02-28T09:49:03.411Z,1028.70
2023-02-28T09:50:03.417Z,1028.66
2023-02-28T09:51:03.412Z,1028.68
2023-02-28T09:52:03.413Z,1028.70
2023-02-28T09:53:03.413Z,1028.71
2023-02-28T09:54:03.420Z,1028.70
2023-02-28T09:55:03.424Z,1028.73
2023-02-28T09:56:03.414Z,1028.68
2023-02-28T09:57:03.411Z,1028.73
2023-02-28T09:58:03.408Z,1028.71
2023-02-28T09:59:03.414Z,1028.69
2023-02-28T10:00:03.423Z,1028.71
2023-02-28T10:01:03.481Z,1028.73
2023-02-28T10:02:03.416Z,1028.72
2023-02-28T10:03:03.451Z,1028.72
2023-02-28T10:04:03.435Z,1028.68
2023-02-28T10:05:03.476Z,1028.68
2023-02-28T10:06:03.412Z,1028.72
2023-02-28T10:07:03.413Z,1028.73
2023-02-28T10:08:03.409Z,1028.73
2023-02-28T10:09:03.409Z,1028.72
2023-02-28T10:10:03.410Z,1028.78
2023-02-28T10:11:03.416Z,1028.76
2023-02-28T10:12:03.411Z,1028.75
2023-02-28T10:13:03.414Z,1028.72
2023-02-28T10:14:03.427Z,1028.67
2023-02-28T10:15:03.431Z,1028.74
2023-02-28T10:16:03.476Z,1028.70
2023-02-28T10:17:03.402Z,1028.70
2023-02-28T10:18:08.858Z,1028.71
2023-02-28T10:19:03.433Z,1028.69
2023-02-28T10:20:03.399Z,1028.64
2023-02-28T10:21:03.399Z,1028.64
2023-02-28T10:22:03.399Z,1028.64
2023-02-28T10:23:03.391Z,1028.70
2023-02-28T10:24:03.400Z,1028.66
2023-02-28T10:25:04.371Z,1028.65
2023-02-28T10:26:03.448Z,1028.66
2023-02-28T10:27:03.388Z,1028.61
2023-02-28T10:28:03.408Z,1028.64
2023-02-28T10:29:03.385Z,1028.62
2023-02-28T10:30:03.390Z,1028.59
2023-02-28T10:31:03.439Z,1028.60
2023-02-28T10:32:03.436Z,1028.59
2023-02-28T10:33:03.443Z,1028.59
2023-02-28T10:34:03.387Z,1028.58
2023-02-28T10:35:03.416Z,1028.57
2023-02-28T10:36:03.488Z,1028.59
2023-02-28T10:37:03.381Z,1028.64
2023-02-28T10:38:03.389Z,1028.62
2023-02-28T10:39:03.386Z,1028.61
2023-02-28T10:40:03.382Z,1028.67
2023-02-28T10:41:03.372Z,1028.63
2023-02-28T10:42:03.380Z,1028.67
2023-02-28T10:43:03.375Z,1028.66
2023-02-28T10:44:03.377Z,1028.64
2023-02-28T10:45:03.363Z,1028.65
2023-02-28T10:46:03.409Z,1028.60
2023-02-28T10:47:03.367Z,1028.60
2023-02-28T10:48:03.374Z,1028.58
2023-02-28T10:49:03.369Z,1028.64
2023-02-28T10:50:03.376Z,1028.56
2023-02-28T10:55:03.384Z,1028.45
2023-02-28T10:56:03.359Z,1028.49
2023-02-28T10:57:03.352Z,1028.51
2023-02-28T10:58:03.355Z,1028.39
2023-02-28T10:59:03.368Z,1028.43
2023-02-28T11:00:03.352Z,1028.41
2023-02-28T11:01:03.356Z,1028.34
2023-02-28T11:02:03.467Z,1028.38
2023-02-28T11:03:03.347Z,1028.35
2023-02-28T11:04:03.348Z,1028.28
2023-02-28T11:05:03.429Z,1028.35
2023-02-28T11:06:03.343Z,1028.30
2023-02-28T11:07:03.337Z,1028.29
2023-02-28T11:08:03.353Z,1028.27
2023-02-28T11:09:03.333Z,1028.23
2023-02-28T11:10:03.339Z,1028.25
2023-02-28T11:11:03.360Z,1028.25
2023-02-28T11:12:03.368Z,1028.22
2023-02-28T11:13:03.337Z,1028.23
2023-02-28T11:14:03.328Z,1028.20
2023-02-28T11:15:03.328Z,1028.16
2023-02-28T11:16:03.402Z,1028.15
2023-02-28T11:17:03.327Z,1028.15
2023-02-28T11:18:03.314Z,1028.18
2023-02-28T11:19:03.319Z,1028.17
2023-02-28T11:20:03.319Z,1028.13
2023-02-28T11:21:03.315Z,1028.11
2023-02-28T11:22:03.320Z,1028.11
2023-02-28T11:23:03.329Z,1028.14
2023-02-28T11:24:03.336Z,1028.07
2023-02-28T11:25:03.310Z,1028.08
2023-02-28T11:26:03.318Z,1028.09
2023-02-28T11:27:03.331Z,1028.10
2023-02-28T11:28:03.309Z,1028.10
2023-02-28T11:29:03.315Z,1028.05
2023-02-28T11:30:03.292Z,1028.11
2023-02-28T11:31:03.392Z,1028.12
2023-02-28T11:32:03.360Z,1028.14
2023-02-28T11:33:03.325Z,1028.11
2023-02-28T11:34:03.303Z,1027.98
2023-02-28T11:35:03.305Z,1028.06
2023-02-28T11:36:03.311Z,1028.14
2023-02-28T11:37:03.286Z,1028.10
2023-02-28T11:38:03.292Z,1028.10
2023-02-28T11:39:03.301Z,1028.09
2023-02-28T11:40:03.306Z,1028.08
2023-02-28T11:41:03.299Z,1028.06
2023-02-28T11:42:03.366Z,1028.11
2023-02-28T11:43:03.315Z,1028.11
2023-02-28T11:44:03.297Z,1028.04
2023-02-28T11:45:03.277Z,1028.13
2023-02-28T11:46:03.299Z,1028.10
2023-02-28T11:47:03.329Z,1028.08
2023-02-28T11:48:03.280Z,1028.10
2023-02-28T11:49:03.278Z,1028.16
2023-02-28T11:50:03.266Z,1028.14
2023-02-28T11:51:03.268Z,1028.16
2023-02-28T11:52:03.260Z,1028.12
2023-02-28T11:53:03.267Z,1028.12
2023-02-28T11:54:03.286Z,1028.13
2023-02-28T11:55:03.272Z,1028.14
2023-02-28T11:56:03.260Z,1028.12
2023-02-28T11:57:03.260Z,1028.16
2023-02-28T11:58:03.265Z,1028.10
2023-02-28T11:59:03.279Z,1028.10
2023-02-28T12:00:03.256Z,1028.11
2023-02-28T12:01:03.263Z,1028.16
2023-02-28T12:02:03.285Z,1028.11
2023-02-28T12:03:03.314Z,1028.10
2023-02-28T12:04:03.260Z,1028.08
2023-02-28T12:05:03.252Z,1028.11
2023-02-28T12:06:03.249Z,1028.10
2023-02-28T12:07:03.256Z,1028.10
2023-02-28T12:08:03.270Z,1028.10
2023-02-28T12:09:03.261Z,1028.11
2023-02-28T12:10:03.248Z,1028.11